Weather observations for the past three days for
Fort Bragg / Simmons Army Airfield
| Date | Time (edt) | Wind (mph) | Vis. (mi.) | Weather | Sky Cond. | Temperature (ºF) | Relative Humidity | Wind Chill (°F) | Heat Index (°F) | Pressure | Precipitation (in) | ||||||
|---|---|---|---|---|---|---|---|---|---|---|---|---|---|---|---|---|---|
| Air | Dwpt | 6 hour | altimeter (in) | sea level (mb) | 1 hr | 3 hr | 6 hr | ||||||||||
| Max. | Min. | ||||||||||||||||
| 04 | 14:55 | SW 7 | 10.00 | Fair | CLR | 93.7 | 73.9 | 53% | 104 | 29.96 | 1014.5 | ||||||
| 04 | 13:55 | SW 3 | 10.00 | Fair | CLR | 93.9 | 74.7 | 93.9 | 79.2 | 54% | 105 | 29.98 | 1015.2 | ||||
| 04 | 12:55 | S 6 | 10.00 | Fair | CLR | 92.1 | 75.2 | 58% | 104 | 29.99 | 1015.5 | ||||||
| 04 | 11:55 | W 9 | 10.00 | A Few Clouds | FEW200 | 90.9 | 75 | 60% | 102 | 30 | 1015.9 | ||||||
| 04 | 10:55 | SW 7 | 10.00 | Fair | CLR | 88.7 | 75.4 | 65% | 99 | 30.02 | 1016.6 | ||||||
| 04 | 09:55 | SW 9 | 10.00 | Fair | CLR | 85.6 | 74.7 | 70% | 94 | 30.01 | 1016.2 | ||||||
| 04 | 08:55 | SW 9 | 10.00 | Fair | CLR | 82.6 | 76.1 | 81% | 90 | 30.01 | 1016.2 | ||||||
| 04 | 07:55 | SW 7 | 10.00 | Fair | CLR | 79 | 75.7 | 80.2 | 77.4 | 90% | 83 | 30.01 | 1016.2 | ||||
| 04 | 06:55 | W 5 | 10.00 | Fair | CLR | 77.7 | 75.2 | 92% | 80 | 30.01 | 1016.2 | ||||||
| 04 | 05:55 | Calm | 10.00 | Fair | CLR | 78.3 | 75.7 | 92% | 81 | 29.99 | 1015.5 | ||||||
| 04 | 04:55 | SW 3 | 10.00 | Fair | CLR | 78.4 | 75.6 | 91% | 82 | 29.98 | 1015.2 | ||||||
| 04 | 03:55 | SW 3 | 10.00 | Fair | CLR | 78.8 | 75.2 | 89% | 82 | 29.98 | 1015.2 | ||||||
| 04 | 02:55 | SW 5 | 10.00 | Fair | CLR | 79.3 | 75 | 87% | 84 | 29.99 | 1015.5 | ||||||
| 04 | 01:55 | SW 5 | 10.00 | Fair | CLR | 80.2 | 75.2 | 90.3 | 80.2 | 85% | 85 | 30.01 | 1016.2 | ||||
| 04 | 00:55 | SW 6 | 10.00 | Fair | CLR | 81.7 | 75.2 | 81% | 88 | 30.01 | 1016.2 | ||||||
| 03 | 23:55 | SW 7 | 10.00 | Fair | CLR | 82.4 | 73.9 | 76% | 89 | 30.02 | 1016.6 | ||||||
| 03 | 22:55 | S 7 | 10.00 | Fair | CLR | 84.2 | 73.2 | 70% | 91 | 30.02 | 1016.6 | ||||||
| 03 | 21:55 | SW 5 | 10.00 | Fair | CLR | 86 | 72.3 | 64% | 93 | 30.02 | 1016.6 | ||||||
| 03 | 20:55 | S 3 | 10.00 | Fair | CLR | 87.8 | 73.6 | 63% | 96 | 29.99 | 1015.5 | ||||||
| 03 | 19:55 | S 3 | 10.00 | Fair | CLR | 90.5 | 73.6 | 98.1 | 90.5 | 58% | 100 | 29.97 | 1014.9 | ||||
| 03 | 18:55 | S 5 | 10.00 | Fair | CLR | 93.4 | 73 | 52% | 103 | 29.96 | 1014.5 | ||||||
| 03 | 17:55 | SE 5 | 10.00 | Fair | CLR | 95.5 | 72 | 47% | 104 | 29.96 | 1014.5 | ||||||
| 03 | 16:55 | S 6 | 10.00 | Fair | CLR | 97 | 71.4 | 44% | 105 | 29.96 | 1014.5 | ||||||
| 03 | 15:55 | S 6 | 10.00 | A Few Clouds | FEW050 | 97.3 | 73.6 | 47% | 108 | 29.98 | 1015.2 | ||||||
| 03 | 14:55 | S 5 | 10.00 | A Few Clouds | FEW055 | 95.9 | 71.6 | 45% | 104 | 29.99 | 1015.5 | ||||||
| 03 | 13:55 | E 5 | 10.00 | Fair | CLR | 97.2 | 72.9 | 97.2 | 80.2 | 46% | 107 | 30.01 | 1016.2 | ||||
| 03 | 12:55 | W 5 | 10.00 | Fair | CLR | 93.9 | 72.9 | 51% | 103 | 30.02 | 1016.6 | ||||||
| 03 | 11:55 | E 3 | 10.00 | Fair | CLR | 93.7 | 75.6 | 56% | 106 | 30.04 | 1017.2 | ||||||
| 03 | 10:55 | Calm | 10.00 | Fair | CLR | 91.6 | 75.2 | 59% | 103 | 30.04 | 1017.2 | ||||||
| 03 | 09:55 | W 7 | 10.00 | Fair | CLR | 88.2 | 73.9 | 63% | 97 | 30.03 | 1016.9 | ||||||
| 03 | 08:55 | SW 6 | 10.00 | Fair | CLR | 84.2 | 72.9 | 69% | 91 | 30.04 | 1017.3 | ||||||
| 03 | 07:55 | SW 5 | 10.00 | Fair | CLR | 80.1 | 73.9 | 82.4 | 77.5 | 82% | 85 | 30.04 | 1017.3 | ||||
| 03 | 06:55 | W 3 | 10.00 | Fair | CLR | 77.5 | 73.6 | 88% | 79 | 30.03 | 1016.9 | ||||||
| 03 | 05:55 | Calm | 10.00 | Fair | CLR | 78.1 | 73.4 | 86% | 81 | 30.02 | 1016.6 | ||||||
| 03 | 04:55 | SW 5 | 10.00 | Fair | CLR | 79.9 | 73.8 | 82% | 84 | 30.01 | 1016.2 | ||||||
| 03 | 03:55 | S 3 | 10.00 | Fair | CLR | 80.1 | 73.9 | 82% | 85 | 30.01 | 1016.2 | ||||||
| 03 | 02:55 | Calm | 10.00 | Fair | CLR | 81.1 | 74.3 | 80% | 87 | 30 | 1015.9 | ||||||
| 03 | 01:55 | Calm | 10.00 | Fair | CLR | 82.4 | 74.3 | 88.3 | 82.4 | 77% | 89 | 30.01 | 1016.2 | ||||
| 03 | 00:55 | SW 5 | 10.00 | Fair | CLR | 83.7 | 74.5 | 74% | 91 | 30.01 | 1016.2 | ||||||
| 02 | 23:55 | SW 5 | 10.00 | Fair | CLR | 85.3 | 75.9 | 74% | 95 | 30.01 | 1016.2 | ||||||
| 02 | 22:55 | SW 7 | 10.00 | Fair | CLR | 86.7 | 76.1 | 71% | 97 | 29.99 | 1015.5 | ||||||
| 02 | 21:55 | Calm | 10.00 | A Few Clouds | FEW100 | 85.5 | 77.7 | 78% | 97 | 30.02 | 1016.6 | ||||||
| 02 | 20:55 | Calm | 10.00 | Fair | CLR | 84.9 | 77.9 | 80% | 96 | 30.01 | 1016.2 | ||||||
| 02 | 19:55 | Calm | 10.00 | Fair | CLR | 87.4 | 78.4 | 98.2 | 87.4 | 75% | 101 | 29.99 | 1015.6 | ||||
| 02 | 18:55 | Calm | 10.00 | Fair | CLR | 93.9 | 72.9 | 51% | 103 | 29.99 | 1015.5 | ||||||
| 02 | 17:55 | E 5 | 10.00 | Fair | CLR | 96.8 | 71.8 | 45% | 105 | 29.98 | 1015.2 | ||||||
| 02 | 16:55 | E 3 | 10.00 | Fair | CLR | 96.6 | 72.3 | 46% | 106 | 29.99 | 1015.5 | ||||||
| 02 | 15:55 | E 7 | 10.00 | Overcast | OVC055 | 97.7 | 73.2 | 45% | 108 | 30 | 1015.9 | ||||||
| 02 | 14:55 | Calm | 10.00 | Partly Cloudy | SCT055 | 95.2 | 71.6 | 47% | 103 | 30.01 | 1016.2 | ||||||
| 02 | 13:55 | Calm | 10.00 | Fair | CLR | 95.9 | 73.6 | 96.6 | 78.6 | 49% | 106 | 30.03 | 1016.9 | ||||
| 02 | 12:55 | Calm | 10.00 | Fair | CLR | 95.5 | 73.2 | 49% | 105 | 30.04 | 1017.2 | ||||||
| 02 | 11:55 | Calm | 10.00 | Fair | CLR | 93.4 | 75.2 | 56% | 105 | 30.05 | 1017.6 | ||||||
| 02 | 10:55 | Calm | 10.00 | Fair | CLR | 91.4 | 75.4 | 60% | 103 | 30.05 | 1017.6 | ||||||
| 02 | 09:55 | Calm | 10.00 | Fair | CLR | 86.7 | 74.8 | 68% | 96 | 30.04 | 1017.2 | ||||||
| 02 | 08:55 | NW 5 | 10.00 | Fair | CLR | 83.1 | 74.7 | 76% | 90 | 30.04 | 1017.2 | ||||||
| 02 | 07:55 | W 5 | 10.00 | Fair | CLR | 78.4 | 74.1 | 81.1 | 77.2 | 87% | 81 | 30.05 | 1017.6 | ||||
| 02 | 06:55 | W 3 | 10.00 | Fair | CLR | 77.9 | 73.9 | 88% | 80 | 30.04 | 1017.2 | ||||||
| 02 | 05:55 | SW 5 | 10.00 | Fair | CLR | 78.3 | 73.9 | 87% | 81 | 30.04 | 1017.2 | ||||||
| 02 | 04:55 | SW 6 | 10.00 | Fair | CLR | 78.3 | 73.6 | 86% | 81 | 30.03 | 1016.9 | ||||||
| 02 | 03:55 | SW 5 | 10.00 | Fair | CLR | 79.9 | 73.4 | 81% | 84 | 30.03 | 1016.9 | ||||||
| 02 | 02:55 | SW 5 | 10.00 | Fair | CLR | 80.4 | 73.9 | 81% | 85 | 30.04 | 1017.2 | ||||||
| 02 | 01:55 | SW 6 | 10.00 | Fair | CLR | 81 | 74.1 | 88.7 | 81 | 80% | 86 | 30.04 | 1017.2 | ||||
| 02 | 00:55 | SW 5 | 10.00 | Fair | CLR | 82 | 74.8 | 79% | 89 | 30.03 | 1016.9 | ||||||
| 01 | 23:55 | S 7 | 10.00 | Fair | CLR | 83.1 | 75.4 | 78% | 91 | 30.02 | 1016.6 | ||||||
| 01 | 22:55 | S 6 | 10.00 | Fair | CLR | 85.5 | 74.8 | 71% | 94 | 30.01 | 1016.2 | ||||||
| 01 | 20:55 | S 3 | 10.00 | Fair | CLR | 88 | 73.8 | 63% | 96 | 29.99 | 1015.5 | ||||||
| 01 | 19:55 | Calm | 10.00 | Fair | CLR | 88.9 | 75.9 | 96.1 | 88.9 | 66% | 100 | 29.99 | 1015.6 | ||||
| 01 | 18:55 | Calm | 10.00 | Fair | CLR | 91.8 | 75.4 | 59% | 103 | 30 | 1015.9 | ||||||
| 01 | 17:55 | S 3 | 10.00 | Mostly Cloudy | SCT075 BKN090 | 92.5 | 71.6 | 51% | 100 | 30 | 1015.9 | ||||||
| 01 | 16:55 | Calm | 10.00 | Mostly Cloudy | BKN090 | 95.5 | 68 | 41% | 100 | 29.99 | 1015.5 | ||||||
| 01 | 15:55 | E 5 | 10.00 | Mostly Cloudy | BKN075 | 95.5 | 69.4 | 43% | 102 | 30 | 1015.9 | ||||||
| Date | Time (edt) | Wind (mph) | Vis. (mi.) | Weather | Sky Cond. | Air | Dwpt | Max. | Min. | Relative Humidity | Wind Chill (°F) | Heat Index (°F) | altimeter (in) | sea level (mb) | 1 hr | 3 hr | 6 hr |
| 6 hour | |||||||||||||||||
| Temperature (ºF) | Pressure | Precipitation (in) | |||||||||||||||